Date,TemperatureHighF,TemperatureAvgF,TemperatureLowF,DewpointHighF,DewpointAvgF,DewpointLowF,HumidityHigh,HumidityAvg,HumidityLow,PressureMaxIn,PressureMinIn,WindSpeedMaxMPH,WindSpeedAvgMPH,GustSpeedMaxMPH,PrecipitationSumIn
2013-2-1,64.9,52.5,43.2,43.7,40.5,37.6,91,66,38,30.42,30.30,6,2,10,0.00
2013-2-2,70.7,54.7,39.2,53.3,46.0,37.6,98,76,50,30.32,30.18,9,3,10,0.00
2013-2-3,69.6,57.3,45.3,43.7,35.2,22.7,88,50,17,30.19,30.11,4,1,12,0.00
2013-2-4,66.5,55.2,44.7,54.1,48.9,39.6,94,80,59,30.11,29.93,5,2,12,0.00
2013-2-5,71.3,61.1,55.1,63.0,58.7,54.0,99,92,75,30.04,29.92,6,2,8,0.13
2013-2-6,65.4,59.3,53.9,62.6,58.2,53.6,100,96,88,30.11,29.93,11,3,15,0.68
2013-2-7,70.8,62.0,58.3,61.6,59.0,57.3,98,90,71,29.99,29.86,13,3,17,0.23
2013-2-8,67.0,59.6,52.4,60.3,55.9,48.2,99,88,77,30.17,29.96,11,4,17,0.00
2013-2-9,67.9,59.1,53.5,59.9,54.5,49.6,93,85,73,30.20,29.97,14,6,15,0.00
2013-2-10,77.2,68.3,61.9,71.9,65.6,59.9,99,91,75,29.99,29.84,21,8,32,0.33
2013-2-11,63.8,56.3,52.7,62.8,55.2,51.7,98,96,88,30.17,29.96,13,5,26,2.17
2013-2-12,73.8,59.3,54.6,71.0,58.2,52.3,100,96,88,30.05,29.73,12,5,16,0.07
2013-2-13,57.6,52.0,42.5,53.0,45.5,39.9,94,79,58,30.09,29.91,11,5,15,0.06
2013-2-14,42.5,40.0,38.4,40.3,39.0,37.8,98,96,92,30.10,30.08,1,0,6,0.00
2013-2-17,64.0,56.9,48.1,46.9,43.6,38.7,80,62,44,30.29,30.19,12,6,16,0.00
2013-2-18,70.9,60.8,47.7,63.9,54.5,42.0,96,80,59,30.19,29.92,21,10,31,0.56
2013-2-19,64.5,56.5,48.8,62.1,43.1,34.5,93,63,37,30.26,29.97,11,6,19,0.12
2013-2-20,60.3,52.4,43.6,35.9,32.4,26.0,63,47,33,30.23,29.98,13,6,17,0.00
2013-2-21,73.2,64.1,54.1,69.8,56.8,34.8,97,78,48,29.98,29.69,21,10,24,0.58
2013-2-22,64.9,60.9,56.6,63.6,54.3,50.2,98,80,59,29.99,29.86,9,4,14,0.03
2013-2-23,65.9,56.2,49.5,52.2,49.1,44.5,91,78,59,30.00,29.88,8,4,12,0.00
2013-2-24,69.7,57.6,44.2,59.7,50.6,41.7,97,79,53,29.99,29.71,11,4,17,0.38
2013-2-25,70.1,63.5,52.6,68.3,59.1,35.2,99,88,46,29.72,29.42,14,6,19,2.13
2013-2-26,61.4,52.1,44.5,44.4,38.4,33.5,84,60,44,29.94,29.62,12,6,24,0.00
2013-2-27,69.4,58.9,45.7,52.2,43.1,36.3,89,58,35,30.10,29.94,10,4,24,0.00
2013-2-28,53.8,47.1,41.6,38.1,33.2,29.6,82,59,40,30.23,30.08,10,4,14,0.00